sensor_id;sensor_type;location;lat;lon;timestamp;P1;durP1;ratioP1;P2;durP2;ratioP2
35126;SDS011;21300;52.006;5.798;2023-07-29T00:01:20;5.80;;;3.58;;
35126;SDS011;21300;52.006;5.798;2023-07-29T00:03:46;3.95;;;3.35;;
35126;SDS011;21300;52.006;5.798;2023-07-29T00:06:11;5.85;;;3.50;;
35126;SDS011;21300;52.006;5.798;2023-07-29T00:08:37;3.97;;;3.22;;
35126;SDS011;21300;52.006;5.798;2023-07-29T00:11:02;7.25;;;3.60;;
35126;SDS011;21300;52.006;5.798;2023-07-29T00:13:28;6.70;;;3.83;;
35126;SDS011;21300;52.006;5.798;2023-07-29T00:15:54;5.78;;;3.70;;
35126;SDS011;21300;52.006;5.798;2023-07-29T00:18:20;6.60;;;3.75;;
35126;SDS011;21300;52.006;5.798;2023-07-29T00:20:46;5.13;;;3.60;;
35126;SDS011;21300;52.006;5.798;2023-07-29T00:23:12;5.60;;;4.07;;
35126;SDS011;21300;52.006;5.798;2023-07-29T00:25:38;7.88;;;3.42;;
35126;SDS011;21300;52.006;5.798;2023-07-29T00:28:03;5.53;;;3.67;;
35126;SDS011;21300;52.006;5.798;2023-07-29T00:30:29;7.15;;;3.35;;
35126;SDS011;21300;52.006;5.798;2023-07-29T00:32:55;4.20;;;3.20;;
35126;SDS011;21300;52.006;5.798;2023-07-29T00:35:20;5.60;;;3.10;;
35126;SDS011;21300;52.006;5.798;2023-07-29T00:37:46;5.88;;;3.40;;
35126;SDS011;21300;52.006;5.798;2023-07-29T00:40:15;5.75;;;3.53;;
35126;SDS011;21300;52.006;5.798;2023-07-29T00:42:45;3.60;;;3.20;;
35126;SDS011;21300;52.006;5.798;2023-07-29T00:45:11;4.30;;;2.88;;
35126;SDS011;21300;52.006;5.798;2023-07-29T00:47:37;4.82;;;3.10;;
35126;SDS011;21300;52.006;5.798;2023-07-29T00:50:03;6.72;;;3.13;;
35126;SDS011;21300;52.006;5.798;2023-07-29T00:52:29;6.30;;;3.05;;
35126;SDS011;21300;52.006;5.798;2023-07-29T00:54:55;4.80;;;3.03;;
35126;SDS011;21300;52.006;5.798;2023-07-29T00:57:21;4.95;;;2.83;;
35126;SDS011;21300;52.006;5.798;2023-07-29T00:59:48;5.47;;;3.15;;
35126;SDS011;21300;52.006;5.798;2023-07-29T01:02:14;5.45;;;3.30;;
35126;SDS011;21300;52.006;5.798;2023-07-29T01:04:40;6.88;;;3.33;;
35126;SDS011;21300;52.006;5.798;2023-07-29T01:10:18;4.07;;;3.33;;
35126;SDS011;21300;52.006;5.798;2023-07-29T01:12:59;4.60;;;3.60;;
35126;SDS011;21300;52.006;5.798;2023-07-29T01:15:41;5.13;;;3.67;;
35126;SDS011;21300;52.006;5.798;2023-07-29T01:18:24;6.63;;;3.60;;
35126;SDS011;21300;52.006;5.798;2023-07-29T01:20:55;4.57;;;3.92;;
35126;SDS011;21300;52.006;5.798;2023-07-29T01:23:30;5.35;;;3.30;;
35126;SDS011;21300;52.006;5.798;2023-07-29T01:25:57;4.65;;;3.40;;
35126;SDS011;21300;52.006;5.798;2023-07-29T01:28:23;7.00;;;3.22;;
35126;SDS011;21300;52.006;5.798;2023-07-29T01:30:50;7.70;;;3.53;;
35126;SDS011;21300;52.006;5.798;2023-07-29T01:33:26;5.30;;;3.47;;
35126;SDS011;21300;52.006;5.798;2023-07-29T01:35:57;5.68;;;3.20;;
35126;SDS011;21300;52.006;5.798;2023-07-29T01:38:32;5.65;;;3.65;;
35126;SDS011;21300;52.006;5.798;2023-07-29T01:41:00;7.05;;;3.90;;
35126;SDS011;21300;52.006;5.798;2023-07-29T01:43:30;5.85;;;3.58;;
35126;SDS011;21300;52.006;5.798;2023-07-29T01:45:56;7.60;;;3.58;;
35126;SDS011;21300;52.006;5.798;2023-07-29T01:48:22;7.55;;;3.67;;
35126;SDS011;21300;52.006;5.798;2023-07-29T01:50:49;5.03;;;3.95;;
35126;SDS011;21300;52.006;5.798;2023-07-29T01:53:14;3.67;;;3.30;;
35126;SDS011;21300;52.006;5.798;2023-07-29T01:55:40;5.82;;;3.55;;
35126;SDS011;21300;52.006;5.798;2023-07-29T01:58:06;8.00;;;3.97;;
35126;SDS011;21300;52.006;5.798;2023-07-29T02:00:32;4.75;;;3.38;;
35126;SDS011;21300;52.006;5.798;2023-07-29T02:02:57;5.43;;;3.72;;
35126;SDS011;21300;52.006;5.798;2023-07-29T02:05:23;5.78;;;3.42;;
35126;SDS011;21300;52.006;5.798;2023-07-29T02:07:48;7.43;;;3.40;;
35126;SDS011;21300;52.006;5.798;2023-07-29T02:10:15;4.50;;;3.47;;
35126;SDS011;21300;52.006;5.798;2023-07-29T02:12:40;6.22;;;3.25;;
35126;SDS011;21300;52.006;5.798;2023-07-29T02:15:06;5.72;;;3.65;;
35126;SDS011;21300;52.006;5.798;2023-07-29T02:17:32;4.13;;;2.92;;
35126;SDS011;21300;52.006;5.798;2023-07-29T02:19:58;5.07;;;3.50;;
35126;SDS011;21300;52.006;5.798;2023-07-29T02:22:24;5.75;;;3.25;;
35126;SDS011;21300;52.006;5.798;2023-07-29T02:24:49;7.40;;;3.30;;
35126;SDS011;21300;52.006;5.798;2023-07-29T02:27:15;5.07;;;3.70;;
35126;SDS011;21300;52.006;5.798;2023-07-29T02:29:40;6.90;;;3.95;;
35126;SDS011;21300;52.006;5.798;2023-07-29T02:32:06;8.95;;;4.28;;
35126;SDS011;21300;52.006;5.798;2023-07-29T02:34:32;7.88;;;5.35;;
35126;SDS011;21300;52.006;5.798;2023-07-29T02:36:57;10.70;;;7.50;;
35126;SDS011;21300;52.006;5.798;2023-07-29T02:39:23;10.45;;;7.43;;
35126;SDS011;21300;52.006;5.798;2023-07-29T02:41:49;11.10;;;7.53;;
35126;SDS011;21300;52.006;5.798;2023-07-29T02:44:15;13.70;;;8.48;;
35126;SDS011;21300;52.006;5.798;2023-07-29T02:46:41;10.20;;;8.35;;
35126;SDS011;21300;52.006;5.798;2023-07-29T02:49:06;12.07;;;8.93;;
35126;SDS011;21300;52.006;5.798;2023-07-29T02:51:32;14.95;;;10.35;;
35126;SDS011;21300;52.006;5.798;2023-07-29T02:53:58;12.80;;;9.63;;
35126;SDS011;21300;52.006;5.798;2023-07-29T02:56:23;11.80;;;9.65;;
35126;SDS011;21300;52.006;5.798;2023-07-29T02:58:49;10.20;;;8.52;;
35126;SDS011;21300;52.006;5.798;2023-07-29T03:01:16;12.02;;;8.63;;
35126;SDS011;21300;52.006;5.798;2023-07-29T03:03:42;11.43;;;9.32;;
35126;SDS011;21300;52.006;5.798;2023-07-29T03:06:08;12.32;;;9.35;;
35126;SDS011;21300;52.006;5.798;2023-07-29T03:08:36;13.25;;;9.00;;
35126;SDS011;21300;52.006;5.798;2023-07-29T03:11:08;13.40;;;8.95;;
35126;SDS011;21300;52.006;5.798;2023-07-29T03:13:35;17.15;;;9.38;;
35126;SDS011;21300;52.006;5.798;2023-07-29T03:18:34;10.27;;;8.65;;
35126;SDS011;21300;52.006;5.798;2023-07-29T03:21:00;14.85;;;9.13;;
35126;SDS011;21300;52.006;5.798;2023-07-29T03:23:27;12.93;;;8.48;;
35126;SDS011;21300;52.006;5.798;2023-07-29T03:25:57;10.35;;;8.73;;
35126;SDS011;21300;52.006;5.798;2023-07-29T03:28:24;11.93;;;8.25;;
35126;SDS011;21300;52.006;5.798;2023-07-29T03:30:52;11.10;;;7.97;;
35126;SDS011;21300;52.006;5.798;2023-07-29T03:33:18;10.55;;;8.63;;
35126;SDS011;21300;52.006;5.798;2023-07-29T03:35:44;12.80;;;8.75;;
35126;SDS011;21300;52.006;5.798;2023-07-29T03:38:10;13.00;;;7.82;;
35126;SDS011;21300;52.006;5.798;2023-07-29T03:40:36;13.63;;;9.13;;
35126;SDS011;21300;52.006;5.798;2023-07-29T03:43:02;13.10;;;8.18;;
35126;SDS011;21300;52.006;5.798;2023-07-29T03:45:28;11.40;;;8.00;;
35126;SDS011;21300;52.006;5.798;2023-07-29T03:47:53;12.70;;;7.93;;
35126;SDS011;21300;52.006;5.798;2023-07-29T03:50:19;11.73;;;8.00;;
35126;SDS011;21300;52.006;5.798;2023-07-29T03:52:45;10.85;;;7.57;;
35126;SDS011;21300;52.006;5.798;2023-07-29T03:55:10;8.75;;;6.20;;
35126;SDS011;21300;52.006;5.798;2023-07-29T03:57:36;11.48;;;7.53;;
35126;SDS011;21300;52.006;5.798;2023-07-29T04:00:02;11.68;;;7.05;;
35126;SDS011;21300;52.006;5.798;2023-07-29T04:02:28;11.48;;;7.07;;
35126;SDS011;21300;52.006;5.798;2023-07-29T04:04:53;7.57;;;6.40;;
35126;SDS011;21300;52.006;5.798;2023-07-29T04:07:19;10.38;;;6.07;;
35126;SDS011;21300;52.006;5.798;2023-07-29T04:09:45;9.68;;;6.55;;
35126;SDS011;21300;52.006;5.798;2023-07-29T04:12:10;8.65;;;6.55;;
35126;SDS011;21300;52.006;5.798;2023-07-29T04:14:36;8.32;;;6.43;;
35126;SDS011;21300;52.006;5.798;2023-07-29T04:17:01;7.57;;;5.90;;
35126;SDS011;21300;52.006;5.798;2023-07-29T04:19:27;8.63;;;5.88;;
35126;SDS011;21300;52.006;5.798;2023-07-29T04:21:53;9.65;;;5.80;;
35126;SDS011;21300;52.006;5.798;2023-07-29T04:24:18;7.13;;;4.50;;
35126;SDS011;21300;52.006;5.798;2023-07-29T04:26:45;8.95;;;4.53;;
35126;SDS011;21300;52.006;5.798;2023-07-29T04:29:11;6.55;;;4.60;;
35126;SDS011;21300;52.006;5.798;2023-07-29T04:31:36;7.18;;;4.18;;
35126;SDS011;21300;52.006;5.798;2023-07-29T04:34:02;8.18;;;3.97;;
35126;SDS011;21300;52.006;5.798;2023-07-29T04:36:29;6.78;;;4.80;;
35126;SDS011;21300;52.006;5.798;2023-07-29T04:38:55;5.15;;;4.10;;
35126;SDS011;21300;52.006;5.798;2023-07-29T04:41:20;6.30;;;4.05;;
35126;SDS011;21300;52.006;5.798;2023-07-29T04:43:46;8.68;;;4.75;;
35126;SDS011;21300;52.006;5.798;2023-07-29T04:46:12;5.65;;;4.07;;
35126;SDS011;21300;52.006;5.798;2023-07-29T04:48:37;6.70;;;5.03;;
35126;SDS011;21300;52.006;5.798;2023-07-29T04:51:03;7.25;;;4.22;;
35126;SDS011;21300;52.006;5.798;2023-07-29T04:53:28;7.05;;;4.13;;
35126;SDS011;21300;52.006;5.798;2023-07-29T04:55:54;10.30;;;4.78;;
35126;SDS011;21300;52.006;5.798;2023-07-29T04:58:20;5.85;;;3.85;;
35126;SDS011;21300;52.006;5.798;2023-07-29T05:00:48;7.05;;;4.07;;
35126;SDS011;21300;52.006;5.798;2023-07-29T05:03:14;6.85;;;4.00;;
35126;SDS011;21300;52.006;5.798;2023-07-29T05:05:39;5.07;;;3.60;;
35126;SDS011;21300;52.006;5.798;2023-07-29T05:08:05;7.95;;;3.90;;
35126;SDS011;21300;52.006;5.798;2023-07-29T05:10:30;7.72;;;3.60;;
35126;SDS011;21300;52.006;5.798;2023-07-29T05:12:56;6.82;;;4.35;;
35126;SDS011;21300;52.006;5.798;2023-07-29T05:15:21;6.85;;;3.58;;
35126;SDS011;21300;52.006;5.798;2023-07-29T05:17:47;7.10;;;3.72;;
35126;SDS011;21300;52.006;5.798;2023-07-29T05:20:13;4.47;;;3.35;;
35126;SDS011;21300;52.006;5.798;2023-07-29T05:22:38;5.95;;;4.00;;
35126;SDS011;21300;52.006;5.798;2023-07-29T05:25:04;6.63;;;3.53;;
35126;SDS011;21300;52.006;5.798;2023-07-29T05:27:30;7.25;;;3.75;;
35126;SDS011;21300;52.006;5.798;2023-07-29T05:29:56;6.68;;;3.83;;
35126;SDS011;21300;52.006;5.798;2023-07-29T05:32:21;5.32;;;3.30;;
35126;SDS011;21300;52.006;5.798;2023-07-29T05:34:47;8.68;;;3.75;;
35126;SDS011;21300;52.006;5.798;2023-07-29T05:37:12;3.97;;;2.90;;
35126;SDS011;21300;52.006;5.798;2023-07-29T05:39:38;4.60;;;3.10;;
35126;SDS011;21300;52.006;5.798;2023-07-29T05:42:04;4.78;;;3.15;;
35126;SDS011;21300;52.006;5.798;2023-07-29T05:44:30;5.00;;;3.75;;
35126;SDS011;21300;52.006;5.798;2023-07-29T05:46:55;5.28;;;3.67;;
35126;SDS011;21300;52.006;5.798;2023-07-29T05:49:22;5.88;;;3.65;;
35126;SDS011;21300;52.006;5.798;2023-07-29T05:51:47;5.00;;;3.67;;
35126;SDS011;21300;52.006;5.798;2023-07-29T05:54:13;6.63;;;3.60;;
35126;SDS011;21300;52.006;5.798;2023-07-29T05:56:38;6.07;;;4.00;;
35126;SDS011;21300;52.006;5.798;2023-07-29T05:59:04;6.30;;;3.42;;
35126;SDS011;21300;52.006;5.798;2023-07-29T06:01:29;6.05;;;3.42;;
35126;SDS011;21300;52.006;5.798;2023-07-29T06:03:55;5.95;;;3.30;;
35126;SDS011;21300;52.006;5.798;2023-07-29T06:06:21;9.25;;;4.00;;
35126;SDS011;21300;52.006;5.798;2023-07-29T06:08:48;6.75;;;4.30;;
35126;SDS011;21300;52.006;5.798;2023-07-29T06:11:14;9.20;;;4.43;;
35126;SDS011;21300;52.006;5.798;2023-07-29T06:13:40;6.72;;;4.45;;
35126;SDS011;21300;52.006;5.798;2023-07-29T06:16:05;5.22;;;3.95;;
35126;SDS011;21300;52.006;5.798;2023-07-29T06:18:31;6.80;;;4.15;;
35126;SDS011;21300;52.006;5.798;2023-07-29T06:20:56;8.02;;;4.32;;
35126;SDS011;21300;52.006;5.798;2023-07-29T06:23:22;8.48;;;4.88;;
35126;SDS011;21300;52.006;5.798;2023-07-29T06:25:48;7.63;;;4.10;;
35126;SDS011;21300;52.006;5.798;2023-07-29T06:28:13;7.82;;;4.53;;
35126;SDS011;21300;52.006;5.798;2023-07-29T06:30:39;7.63;;;4.45;;
35126;SDS011;21300;52.006;5.798;2023-07-29T06:33:05;8.05;;;4.25;;
35126;SDS011;21300;52.006;5.798;2023-07-29T06:35:31;7.88;;;3.97;;
35126;SDS011;21300;52.006;5.798;2023-07-29T06:37:57;8.18;;;4.30;;
35126;SDS011;21300;52.006;5.798;2023-07-29T06:40:22;10.05;;;4.35;;
35126;SDS011;21300;52.006;5.798;2023-07-29T06:42:48;7.03;;;4.32;;
35126;SDS011;21300;52.006;5.798;2023-07-29T06:45:13;7.90;;;5.18;;
35126;SDS011;21300;52.006;5.798;2023-07-29T06:47:40;7.07;;;4.25;;
35126;SDS011;21300;52.006;5.798;2023-07-29T06:50:06;8.07;;;4.60;;
35126;SDS011;21300;52.006;5.798;2023-07-29T06:52:32;9.50;;;5.10;;
35126;SDS011;21300;52.006;5.798;2023-07-29T06:54:57;8.68;;;5.03;;
35126;SDS011;21300;52.006;5.798;2023-07-29T06:57:23;8.05;;;4.70;;
35126;SDS011;21300;52.006;5.798;2023-07-29T06:59:48;8.35;;;4.97;;
35126;SDS011;21300;52.006;5.798;2023-07-29T07:02:14;8.00;;;4.53;;
35126;SDS011;21300;52.006;5.798;2023-07-29T07:04:40;8.43;;;4.97;;
35126;SDS011;21300;52.006;5.798;2023-07-29T07:07:05;11.60;;;5.05;;
35126;SDS011;21300;52.006;5.798;2023-07-29T07:09:31;6.80;;;5.00;;
35126;SDS011;21300;52.006;5.798;2023-07-29T07:11:56;8.63;;;5.25;;
35126;SDS011;21300;52.006;5.798;2023-07-29T07:14:22;9.45;;;5.47;;
35126;SDS011;21300;52.006;5.798;2023-07-29T07:16:47;7.55;;;4.38;;
35126;SDS011;21300;52.006;5.798;2023-07-29T07:19:13;9.07;;;5.68;;
35126;SDS011;21300;52.006;5.798;2023-07-29T07:21:38;8.52;;;5.97;;
35126;SDS011;21300;52.006;5.798;2023-07-29T07:24:04;8.13;;;5.55;;
35126;SDS011;21300;52.006;5.798;2023-07-29T07:26:30;7.97;;;5.07;;
35126;SDS011;21300;52.006;5.798;2023-07-29T07:28:56;8.50;;;5.35;;
35126;SDS011;21300;52.006;5.798;2023-07-29T07:31:21;9.98;;;6.00;;
35126;SDS011;21300;52.006;5.798;2023-07-29T07:33:47;7.38;;;5.72;;
35126;SDS011;21300;52.006;5.798;2023-07-29T07:36:13;8.23;;;5.45;;
35126;SDS011;21300;52.006;5.798;2023-07-29T07:38:40;9.55;;;5.90;;
35126;SDS011;21300;52.006;5.798;2023-07-29T07:41:06;7.85;;;5.30;;
35126;SDS011;21300;52.006;5.798;2023-07-29T07:43:32;9.98;;;5.63;;
35126;SDS011;21300;52.006;5.798;2023-07-29T07:45:58;8.98;;;5.60;;
35126;SDS011;21300;52.006;5.798;2023-07-29T07:48:24;8.13;;;5.45;;
35126;SDS011;21300;52.006;5.798;2023-07-29T07:50:50;8.43;;;5.72;;
35126;SDS011;21300;52.006;5.798;2023-07-29T07:53:15;5.88;;;4.90;;
35126;SDS011;21300;52.006;5.798;2023-07-29T07:55:41;6.60;;;4.80;;
35126;SDS011;21300;52.006;5.798;2023-07-29T07:58:07;7.07;;;5.57;;
35126;SDS011;21300;52.006;5.798;2023-07-29T08:00:32;7.57;;;5.30;;
35126;SDS011;21300;52.006;5.798;2023-07-29T08:02:58;7.65;;;5.38;;
35126;SDS011;21300;52.006;5.798;2023-07-29T08:05:23;7.32;;;5.60;;
35126;SDS011;21300;52.006;5.798;2023-07-29T08:07:49;7.68;;;5.35;;
35126;SDS011;21300;52.006;5.798;2023-07-29T08:10:14;6.95;;;5.20;;
35126;SDS011;21300;52.006;5.798;2023-07-29T08:12:40;6.40;;;5.10;;
35126;SDS011;21300;52.006;5.798;2023-07-29T08:15:06;8.65;;;5.22;;
35126;SDS011;21300;52.006;5.798;2023-07-29T08:17:32;5.68;;;5.05;;
35126;SDS011;21300;52.006;5.798;2023-07-29T08:19:57;5.75;;;4.47;;
35126;SDS011;21300;52.006;5.798;2023-07-29T08:22:23;8.23;;;4.97;;
35126;SDS011;21300;52.006;5.798;2023-07-29T08:24:48;6.70;;;4.70;;
35126;SDS011;21300;52.006;5.798;2023-07-29T08:27:14;5.18;;;4.07;;
35126;SDS011;21300;52.006;5.798;2023-07-29T08:29:40;6.03;;;4.47;;
35126;SDS011;21300;52.006;5.798;2023-07-29T08:32:05;7.20;;;4.93;;
35126;SDS011;21300;52.006;5.798;2023-07-29T08:34:31;7.85;;;4.43;;
35126;SDS011;21300;52.006;5.798;2023-07-29T08:36:56;7.85;;;3.90;;
35126;SDS011;21300;52.006;5.798;2023-07-29T08:39:22;6.25;;;4.05;;
35126;SDS011;21300;52.006;5.798;2023-07-29T08:41:54;6.35;;;4.03;;
35126;SDS011;21300;52.006;5.798;2023-07-29T08:44:40;6.25;;;3.83;;
35126;SDS011;21300;52.006;5.798;2023-07-29T08:47:07;5.70;;;3.58;;
35126;SDS011;21300;52.006;5.798;2023-07-29T08:49:33;5.30;;;3.20;;
35126;SDS011;21300;52.006;5.798;2023-07-29T08:51:59;5.22;;;3.28;;
35126;SDS011;21300;52.006;5.798;2023-07-29T08:54:26;7.70;;;3.53;;
35126;SDS011;21300;52.006;5.798;2023-07-29T08:56:51;3.53;;;3.10;;
35126;SDS011;21300;52.006;5.798;2023-07-29T08:59:17;5.25;;;3.33;;
35126;SDS011;21300;52.006;5.798;2023-07-29T09:01:44;5.95;;;3.00;;
35126;SDS011;21300;52.006;5.798;2023-07-29T09:04:10;7.28;;;3.33;;
35126;SDS011;21300;52.006;5.798;2023-07-29T09:06:35;4.68;;;3.00;;
35126;SDS011;21300;52.006;5.798;2023-07-29T09:09:03;4.75;;;2.70;;
35126;SDS011;21300;52.006;5.798;2023-07-29T09:11:29;5.00;;;2.60;;
35126;SDS011;21300;52.006;5.798;2023-07-29T09:13:55;4.88;;;2.95;;
35126;SDS011;21300;52.006;5.798;2023-07-29T09:16:20;3.70;;;2.40;;
35126;SDS011;21300;52.006;5.798;2023-07-29T09:18:50;5.10;;;2.72;;
35126;SDS011;21300;52.006;5.798;2023-07-29T09:21:22;4.50;;;2.53;;
35126;SDS011;21300;52.006;5.798;2023-07-29T09:23:50;6.85;;;3.17;;
35126;SDS011;21300;52.006;5.798;2023-07-29T09:26:26;5.47;;;2.97;;
35126;SDS011;21300;52.006;5.798;2023-07-29T09:28:53;4.75;;;3.15;;
35126;SDS011;21300;52.006;5.798;2023-07-29T09:31:23;4.40;;;3.08;;
35126;SDS011;21300;52.006;5.798;2023-07-29T09:33:50;4.85;;;2.72;;
35126;SDS011;21300;52.006;5.798;2023-07-29T09:36:22;4.65;;;3.10;;
35126;SDS011;21300;52.006;5.798;2023-07-29T09:38:50;4.70;;;2.95;;
35126;SDS011;21300;52.006;5.798;2023-07-29T09:41:18;5.53;;;3.03;;
35126;SDS011;21300;52.006;5.798;2023-07-29T09:43:43;3.75;;;2.60;;
35126;SDS011;21300;52.006;5.798;2023-07-29T09:46:09;5.15;;;2.83;;
35126;SDS011;21300;52.006;5.798;2023-07-29T09:48:35;6.93;;;2.60;;
35126;SDS011;21300;52.006;5.798;2023-07-29T09:51:11;3.28;;;2.10;;
35126;SDS011;21300;52.006;5.798;2023-07-29T09:53:44;3.35;;;2.08;;
35126;SDS011;21300;52.006;5.798;2023-07-29T09:56:11;3.00;;;2.00;;
35126;SDS011;21300;52.006;5.798;2023-07-29T09:58:38;3.35;;;1.70;;
35126;SDS011;21300;52.006;5.798;2023-07-29T10:01:06;4.55;;;2.15;;
35126;SDS011;21300;52.006;5.798;2023-07-29T10:03:33;3.97;;;1.65;;
35126;SDS011;21300;52.006;5.798;2023-07-29T10:06:00;3.10;;;1.67;;
35126;SDS011;21300;52.006;5.798;2023-07-29T10:08:26;4.35;;;1.70;;
35126;SDS011;21300;52.006;5.798;2023-07-29T10:10:54;4.07;;;1.67;;
35126;SDS011;21300;52.006;5.798;2023-07-29T10:13:20;4.65;;;1.85;;
35126;SDS011;21300;52.006;5.798;2023-07-29T10:15:46;4.63;;;2.08;;
35126;SDS011;21300;52.006;5.798;2023-07-29T10:18:13;2.80;;;1.50;;
35126;SDS011;21300;52.006;5.798;2023-07-29T10:20:41;2.42;;;1.58;;
35126;SDS011;21300;52.006;5.798;2023-07-29T10:23:08;2.67;;;1.60;;
35126;SDS011;21300;52.006;5.798;2023-07-29T10:25:38;3.67;;;1.80;;
35126;SDS011;21300;52.006;5.798;2023-07-29T10:28:08;3.20;;;1.92;;
35126;SDS011;21300;52.006;5.798;2023-07-29T10:30:36;4.05;;;1.77;;
35126;SDS011;21300;52.006;5.798;2023-07-29T10:33:04;2.83;;;1.63;;
35126;SDS011;21300;52.006;5.798;2023-07-29T10:35:34;3.15;;;1.52;;
35126;SDS011;21300;52.006;5.798;2023-07-29T10:38:00;2.40;;;1.58;;
35126;SDS011;21300;52.006;5.798;2023-07-29T10:40:28;2.92;;;1.55;;
35126;SDS011;21300;52.006;5.798;2023-07-29T10:43:34;3.00;;;1.73;;
35126;SDS011;21300;52.006;5.798;2023-07-29T10:46:21;3.22;;;1.95;;
35126;SDS011;21300;52.006;5.798;2023-07-29T10:51:36;2.80;;;1.45;;
35126;SDS011;21300;52.006;5.798;2023-07-29T10:56:33;3.90;;;1.88;;
35126;SDS011;21300;52.006;5.798;2023-07-29T10:59:03;3.63;;;2.10;;
35126;SDS011;21300;52.006;5.798;2023-07-29T11:15:04;3.30;;;2.42;;
35126;SDS011;21300;52.006;5.798;2023-07-29T11:17:47;3.58;;;2.15;;
35126;SDS011;21300;52.006;5.798;2023-07-29T11:20:13;2.80;;;2.10;;
35126;SDS011;21300;52.006;5.798;2023-07-29T11:22:40;2.45;;;1.80;;
35126;SDS011;21300;52.006;5.798;2023-07-29T11:25:06;2.88;;;1.80;;
35126;SDS011;21300;52.006;5.798;2023-07-29T11:27:34;4.70;;;2.00;;
35126;SDS011;21300;52.006;5.798;2023-07-29T11:30:00;3.38;;;1.80;;
35126;SDS011;21300;52.006;5.798;2023-07-29T11:32:27;3.08;;;1.92;;
35126;SDS011;21300;52.006;5.798;2023-07-29T11:34:52;4.18;;;2.25;;
35126;SDS011;21300;52.006;5.798;2023-07-29T11:37:18;3.10;;;1.75;;
35126;SDS011;21300;52.006;5.798;2023-07-29T11:39:45;4.25;;;1.90;;
35126;SDS011;21300;52.006;5.798;2023-07-29T11:42:12;3.40;;;1.65;;
35126;SDS011;21300;52.006;5.798;2023-07-29T11:44:38;2.13;;;1.58;;
35126;SDS011;21300;52.006;5.798;2023-07-29T11:47:07;1.95;;;1.08;;
35126;SDS011;21300;52.006;5.798;2023-07-29T11:49:37;1.52;;;0.90;;
35126;SDS011;21300;52.006;5.798;2023-07-29T11:52:08;3.42;;;1.00;;
35126;SDS011;21300;52.006;5.798;2023-07-29T11:54:35;1.55;;;1.00;;
35126;SDS011;21300;52.006;5.798;2023-07-29T11:57:03;2.95;;;1.20;;
35126;SDS011;21300;52.006;5.798;2023-07-29T11:59:33;1.85;;;1.00;;
35126;SDS011;21300;52.006;5.798;2023-07-29T12:02:00;3.08;;;1.20;;
35126;SDS011;21300;52.006;5.798;2023-07-29T12:04:28;10.85;;;1.50;;
35126;SDS011;21300;52.006;5.798;2023-07-29T12:06:55;2.70;;;1.33;;
35126;SDS011;21300;52.006;5.798;2023-07-29T12:09:21;2.22;;;1.15;;
35126;SDS011;21300;52.006;5.798;2023-07-29T12:11:47;3.67;;;1.50;;
35126;SDS011;21300;52.006;5.798;2023-07-29T12:14:12;5.40;;;1.35;;
35126;SDS011;21300;52.006;5.798;2023-07-29T12:16:42;4.00;;;1.23;;
35126;SDS011;21300;52.006;5.798;2023-07-29T12:19:08;3.72;;;1.42;;
35126;SDS011;21300;52.006;5.798;2023-07-29T12:21:33;2.78;;;1.23;;
35126;SDS011;21300;52.006;5.798;2023-07-29T12:24:00;3.38;;;1.40;;
35126;SDS011;21300;52.006;5.798;2023-07-29T12:26:28;3.15;;;1.45;;
35126;SDS011;21300;52.006;5.798;2023-07-29T12:28:54;1.98;;;1.10;;
35126;SDS011;21300;52.006;5.798;2023-07-29T12:31:21;2.80;;;1.27;;
35126;SDS011;21300;52.006;5.798;2023-07-29T12:33:55;2.00;;;1.50;;
35126;SDS011;21300;52.006;5.798;2023-07-29T12:36:21;1.70;;;1.17;;
35126;SDS011;21300;52.006;5.798;2023-07-29T12:38:47;2.83;;;1.20;;
35126;SDS011;21300;52.006;5.798;2023-07-29T12:41:12;1.45;;;1.17;;
35126;SDS011;21300;52.006;5.798;2023-07-29T12:43:38;2.13;;;1.45;;
35126;SDS011;21300;52.006;5.798;2023-07-29T12:46:04;2.40;;;1.00;;
35126;SDS011;21300;52.006;5.798;2023-07-29T12:48:30;2.88;;;1.17;;
35126;SDS011;21300;52.006;5.798;2023-07-29T12:50:55;1.23;;;0.93;;
35126;SDS011;21300;52.006;5.798;2023-07-29T12:53:21;2.55;;;1.08;;
35126;SDS011;21300;52.006;5.798;2023-07-29T12:55:46;1.38;;;0.90;;
35126;SDS011;21300;52.006;5.798;2023-07-29T12:58:12;2.67;;;1.13;;
35126;SDS011;21300;52.006;5.798;2023-07-29T13:00:37;1.45;;;1.10;;
35126;SDS011;21300;52.006;5.798;2023-07-29T13:03:03;1.70;;;1.30;;
35126;SDS011;21300;52.006;5.798;2023-07-29T13:05:30;2.35;;;1.23;;
35126;SDS011;21300;52.006;5.798;2023-07-29T13:07:56;3.63;;;1.60;;
35126;SDS011;21300;52.006;5.798;2023-07-29T13:10:21;2.63;;;1.60;;
35126;SDS011;21300;52.006;5.798;2023-07-29T13:12:47;2.47;;;1.60;;
35126;SDS011;21300;52.006;5.798;2023-07-29T13:15:13;2.78;;;1.80;;
35126;SDS011;21300;52.006;5.798;2023-07-29T13:17:39;3.33;;;2.47;;
35126;SDS011;21300;52.006;5.798;2023-07-29T13:20:05;3.40;;;2.85;;
35126;SDS011;21300;52.006;5.798;2023-07-29T13:22:31;3.63;;;3.25;;
35126;SDS011;21300;52.006;5.798;2023-07-29T13:24:57;3.28;;;2.97;;
35126;SDS011;21300;52.006;5.798;2023-07-29T13:27:22;4.70;;;3.13;;
35126;SDS011;21300;52.006;5.798;2023-07-29T13:29:49;4.15;;;3.40;;
35126;SDS011;21300;52.006;5.798;2023-07-29T13:32:14;6.47;;;3.97;;
35126;SDS011;21300;52.006;5.798;2023-07-29T13:34:40;4.30;;;3.85;;
35126;SDS011;21300;52.006;5.798;2023-07-29T13:37:06;4.78;;;3.88;;
35126;SDS011;21300;52.006;5.798;2023-07-29T13:39:31;4.13;;;3.70;;
35126;SDS011;21300;52.006;5.798;2023-07-29T13:41:57;4.10;;;3.70;;
35126;SDS011;21300;52.006;5.798;2023-07-29T13:44:22;5.18;;;4.57;;
35126;SDS011;21300;52.006;5.798;2023-07-29T13:46:48;6.40;;;4.93;;
35126;SDS011;21300;52.006;5.798;2023-07-29T13:49:13;4.63;;;4.18;;
35126;SDS011;21300;52.006;5.798;2023-07-29T13:51:39;4.35;;;3.92;;
35126;SDS011;21300;52.006;5.798;2023-07-29T13:54:05;4.30;;;3.83;;
35126;SDS011;21300;52.006;5.798;2023-07-29T13:56:30;4.45;;;3.70;;
35126;SDS011;21300;52.006;5.798;2023-07-29T13:58:56;5.10;;;3.50;;
35126;SDS011;21300;52.006;5.798;2023-07-29T14:01:21;3.83;;;3.45;;
35126;SDS011;21300;52.006;5.798;2023-07-29T14:03:47;3.63;;;3.22;;
35126;SDS011;21300;52.006;5.798;2023-07-29T14:06:12;4.78;;;3.13;;
35126;SDS011;21300;52.006;5.798;2023-07-29T14:11:22;4.05;;;3.65;;
35126;SDS011;21300;52.006;5.798;2023-07-29T14:13:48;4.10;;;3.70;;
35126;SDS011;21300;52.006;5.798;2023-07-29T14:16:14;4.25;;;3.20;;
35126;SDS011;21300;52.006;5.798;2023-07-29T14:18:40;3.35;;;2.80;;
35126;SDS011;21300;52.006;5.798;2023-07-29T14:21:06;2.63;;;2.42;;
35126;SDS011;21300;52.006;5.798;2023-07-29T14:23:31;3.35;;;2.42;;
35126;SDS011;21300;52.006;5.798;2023-07-29T14:25:57;2.30;;;2.08;;
35126;SDS011;21300;52.006;5.798;2023-07-29T14:28:23;3.22;;;2.33;;
35126;SDS011;21300;52.006;5.798;2023-07-29T14:30:48;2.47;;;2.10;;
35126;SDS011;21300;52.006;5.798;2023-07-29T14:33:14;2.47;;;2.20;;
35126;SDS011;21300;52.006;5.798;2023-07-29T14:35:40;2.38;;;1.77;;
35126;SDS011;21300;52.006;5.798;2023-07-29T14:38:05;3.67;;;2.13;;
35126;SDS011;21300;52.006;5.798;2023-07-29T14:40:31;3.95;;;2.22;;
35126;SDS011;21300;52.006;5.798;2023-07-29T14:42:56;3.45;;;1.88;;
35126;SDS011;21300;52.006;5.798;2023-07-29T14:45:22;5.20;;;2.15;;
35126;SDS011;21300;52.006;5.798;2023-07-29T14:47:47;3.13;;;2.33;;
35126;SDS011;21300;52.006;5.798;2023-07-29T14:50:13;2.63;;;2.10;;
35126;SDS011;21300;52.006;5.798;2023-07-29T14:52:38;3.42;;;2.20;;
35126;SDS011;21300;52.006;5.798;2023-07-29T14:55:04;2.60;;;2.10;;
35126;SDS011;21300;52.006;5.798;2023-07-29T14:57:30;3.38;;;2.30;;
35126;SDS011;21300;52.006;5.798;2023-07-29T14:59:56;4.35;;;1.77;;
35126;SDS011;21300;52.006;5.798;2023-07-29T15:02:21;4.07;;;1.80;;
35126;SDS011;21300;52.006;5.798;2023-07-29T15:04:48;2.70;;;2.15;;
35126;SDS011;21300;52.006;5.798;2023-07-29T15:07:14;3.03;;;2.10;;
35126;SDS011;21300;52.006;5.798;2023-07-29T15:09:39;4.43;;;2.00;;